Flight Track Log - Related Links

Times and Time Zones

All times are in EDT time to prevent confusion due to time zone crossing. See the N809NN flight status page for this flight to view local times or setup timezone preferences in your user account.

Time Position Orientation Groundspeed Altitude Reporting Facility
EDT Latitude Longitude Course Direction KTS MPH feet Rate Location/Type
Sat 06:47:32 PM 26.5588 -81.8132 215° Southwest  Level FlightAware Approximate
Sat 06:48:32 PM 26.4593 -81.8443 253° West  Level FlightAware Approximate
Sat 06:49:32 PM 26.3970 -81.9393 34° Northeast  Level FlightAware Approximate
Sat 06:50:32 PM 26.3309 -82.0310 45° Northeast  Level FlightAware Approximate
Sat 06:50:38 PM 26.4422 -81.9050 233° Southwest 279 321 3,600  Level Miami Center
Sat 06:53:37 PM 26.3014 -82.1119 261° West 296 341 11,300 2,259 Climbing Miami Center
Sat 06:54:37 PM 26.2869 -82.2178 264° West 309 356 12,600 1,900 Climbing Miami Center
Sat 06:55:37 PM 26.2767 -82.3286 265° West 334 384 15,100 2,400 Climbing Miami Center
Sat 06:56:37 PM 26.2678 -82.4508 285° West 371 427 17,400 2,300 Climbing Miami Center
Sat 06:57:37 PM 26.2947 -82.5608 303° West 381 438 19,700 2,150 Climbing Miami Center
Sat 06:58:37 PM 26.3533 -82.6633 301° West 374 430 21,700 1,850 Climbing Miami Center
Sat 06:59:37 PM 26.4117 -82.7706 303° West 396 456 23,400 1,700 Climbing Miami Center
Sat 07:00:37 PM 26.4761 -82.8803 302° West 413 475 25,100 1,850 Climbing Miami Center
Sat 07:01:37 PM 26.5403 -82.9950 301° West 425 489 27,100 1,700 Climbing Miami Center
Sat 07:02:37 PM 26.5981 -83.1025 301° West 425 489 28,500 1,200 Climbing Miami Center
Sat 07:03:37 PM 26.6600 -83.2172 302° West 425 489 29,500 1,150 Climbing Miami Center
Sat 07:04:37 PM 26.7239 -83.3322 303° West 430 495 30,800 1,550 Climbing Miami Center
Sat 07:05:37 PM 26.7894 -83.4475 303° West 430 495 32,600 1,550 Climbing Miami Center
Sat 07:06:37 PM 26.8514 -83.5556 299° West 430 495 33,900 1,190 Climbing Miami Center
Sat 07:07:38 PM 26.9067 -83.6658 303° West 418 481 35,000 1,050 Climbing Miami Center
Sat 07:08:37 PM 26.9703 -83.7767 300° West 418 481 36,000 950 Climbing Miami Center
Sat 07:09:38 PM 27.0275 -83.8872 301° West 418 481 36,900 800 Climbing Miami Center
Sat 07:10:37 PM 27.0886 -84.0003 303° West 418 481 37,600 555 Climbing Miami Center
Sat 07:11:37 PM 27.1519 -84.1114 301° West 418 481 38,000 198 Climbing Miami Center
Sat 07:12:38 PM 27.2111 -84.2225 302° West 418 481 38,000 -50 Level Miami Center
Sat 07:13:37 PM 27.2719 -84.3336 300° West 418 481 37,900  Descending Miami Center
Sat 07:14:37 PM 27.3289 -84.4447 302° West 418 481 38,000 50 Climbing Miami Center
Sat 07:15:38 PM 27.3917 -84.5586 302° West 418 481 38,000  Level Miami Center
Sat 07:17:22 PM 27.5103 -84.7708 298° West 411 473 38,000  Level Jacksonville Center
Sat 07:18:22 PM 27.5608 -84.8794 301° West 410 472 38,000  Level Jacksonville Center
Sat 07:19:22 PM 27.6197 -84.9883 299° West 410 472 38,000  Level Jacksonville Center
Sat 07:20:22 PM 27.6761 -85.1044 302° West 410 472 38,000  Level Jacksonville Center
Sat 07:21:22 PM 27.7347 -85.2111 300° West 410 472 38,000  Level Jacksonville Center
Sat 07:22:22 PM 27.7931 -85.3250 301° West 410 472 38,000  Level Jacksonville Center
Sat 07:23:22 PM 27.8517 -85.4344 301° West 410 472 38,000  Level Jacksonville Center
Sat 07:24:22 PM 27.9097 -85.5439 301° West 410 472 38,000  Level Jacksonville Center
Sat 07:25:22 PM 27.9700 -85.6558 302° West 410 472 38,000  Level Jacksonville Center
Sat 07:26:22 PM 28.0283 -85.7631 299° West 416 479 38,000  Level Jacksonville Center
Sat 07:27:22 PM 28.0881 -85.8850 302° West 421 484 38,000  Level Jacksonville Center
Sat 07:28:22 PM 28.1481 -85.9950 300° West 426 490 38,000  Level Jacksonville Center
Sat 07:29:22 PM 28.2097 -86.1169 301° West 426 490 38,000 -50 Level Jacksonville Center
Sat 07:30:22 PM 28.2675 -86.2272 300° West 421 484 37,900  Descending Jacksonville Center
Sat 07:31:22 PM 28.3289 -86.3469 300° West 426 490 38,000 50 Climbing Jacksonville Center
Sat 07:32:22 PM 28.3864 -86.4600 300° West 426 490 38,000  Level Jacksonville Center
Sat 07:33:22 PM 28.4456 -86.5753 300° West 426 490 38,000  Level Jacksonville Center
Sat 07:34:22 PM 28.5050 -86.6908 300° West 426 490 38,000  Level Jacksonville Center
Sat 07:35:22 PM 28.5639 -86.8089 300° West 426 490 38,000  Level Jacksonville Center
Sat 07:36:22 PM 28.6231 -86.9247 300° West 426 490 38,000  Level Jacksonville Center
Sat 07:37:22 PM 28.6839 -87.0431 299° West 426 490 38,000 -50 Level Jacksonville Center
Sat 07:38:22 PM 28.7406 -87.1589 301° West 426 490 37,900  Descending Jacksonville Center
Sat 07:39:22 PM 28.8033 -87.2778 301° West 426 490 38,000 50 Climbing Jacksonville Center
Sat 07:40:22 PM 28.8658 -87.3967 298° West 426 490 38,000  Level Jacksonville Center
Sat 07:41:22 PM 28.9125 -87.4983 300° West 433 498 38,000  Level Jacksonville Center
Sat 07:42:42 PM 28.9908 -87.6519 301° West 426 490 38,000 -43 Level Houston Center
Sat 07:43:42 PM 29.0547 -87.7731 299° West 426 490 37,900 -50 Descending Houston Center
Sat 07:44:42 PM 29.1058 -87.8806 297° West 420 483 37,900 50 Level Houston Center
Sat 07:45:42 PM 29.1569 -87.9953 298° West 415 478 38,000  Climbing Houston Center
Sat 07:46:42 PM 29.2100 -88.1075 298° West 404 465 37,900 -50 Descending Houston Center
Sat 07:47:42 PM 29.2631 -88.2200 301° West 397 457 37,900 50 Level Houston Center
Sat 07:48:42 PM 29.3222 -88.3325 300° West 403 464 38,000 50 Climbing Houston Center
Sat 07:49:42 PM 29.3792 -88.4450 299° West 408 470 38,000  Level Houston Center
Sat 07:50:42 PM 29.4342 -88.5578 299° West 408 470 38,000  Level Houston Center
Sat 07:51:42 PM 29.4889 -88.6708 299° West 408 470 38,000 -50 Level Houston Center
Sat 07:52:42 PM 29.5433 -88.7861 299° West 408 470 37,900 -50 Descending Houston Center
Sat 07:53:42 PM 29.6003 -88.9042 297° West 408 470 37,900 50 Level Houston Center
Sat 07:54:42 PM 29.6525 -89.0197 299° West 408 470 38,000 50 Climbing Houston Center
Sat 07:55:42 PM 29.7069 -89.1333 299° West 408 470 38,000 -50 Level Houston Center
Sat 07:56:42 PM 29.7633 -89.2492 299° West 408 470 37,900  Descending Houston Center
Sat 07:57:42 PM 29.8175 -89.3628 300° West 403 464 38,000  Climbing Houston Center
Sat 07:58:42 PM 29.8736 -89.4739 297° West 403 464 37,900  Descending Houston Center
Sat 07:59:42 PM 29.9256 -89.5903 299° West 403 464 38,000  Climbing Houston Center
Sat 08:00:42 PM 29.9817 -89.7092 298° West 403 464 37,900  Descending Houston Center
Sat 08:01:42 PM 30.0353 -89.8281 298° West 403 464 38,000  Climbing Houston Center
Sat 08:02:42 PM 30.0956 -89.9567 299° West 403 464 37,900  Descending Houston Center
Sat 08:03:42 PM 30.1533 -90.0781 298° West 408 470 38,000 50 Climbing Houston Center
Sat 08:04:42 PM 30.2069 -90.1950 300° West 413 475 38,000 -50 Level Houston Center
Sat 08:05:42 PM 30.2644 -90.3119 299° West 413 475 37,900  Descending Houston Center
Sat 08:07:06 PM 30.3456 -90.4803 296° West 414 476 38,000  Climbing FlightAware ADS-B
Sat 08:07:42 PM 30.3731 -90.5464 299° West 413 475 37,900  Descending Houston Center
Sat 08:08:42 PM 30.4283 -90.6617 298° West 413 475 38,000 34 Climbing Houston Center
Sat 08:10:36 PM 30.5351 -90.8920 298° West 419 482 38,000  Level FlightAware ADS-B
Sat 08:11:28 PM 30.5823 -90.9949 298° West 419 482 38,000  Level FlightAware ADS-B
Sat 08:12:05 PM 30.6159 -91.0686 298° West 418 481 38,000  Level FlightAware ADS-B
Sat 08:12:54 PM 30.6598 -91.1652 298° West 419 482 38,000  Level FlightAware ADS-B
Sat 08:13:25 PM 30.6879 -91.2270 297° West 420 483 38,000  Level FlightAware ADS-B
Sat 08:14:42 PM 30.7508 -91.3711 299° West 408 470 38,000  Level Houston Center
Sat 08:15:42 PM 30.8075 -91.4919 298° West 408 470 38,000  Level Houston Center
Sat 08:16:42 PM 30.8597 -91.6078 297° West 408 470 38,000  Level Houston Center
Sat 08:17:42 PM 30.9119 -91.7264 298° West 408 470 38,000  Level Houston Center
Sat 08:18:41 PM 30.9639 -91.8428 298° West 408 470 38,000  Level Houston Center
Sat 08:20:35 PM 31.0662 -92.0697 297° West 405 466 38,000  Level FlightAware ADS-B
Sat 08:21:07 PM 31.0940 -92.1321 297° West 404 465 38,000  Level FlightAware ADS-B
Sat 08:21:53 PM 31.1334 -92.2210 297° West 405 466 38,000  Level FlightAware ADS-B
Sat 08:22:24 PM 31.1596 -92.2803 299° West 406 467 38,000 -122 Level FlightAware ADS-B
Sat 08:22:42 PM 31.1672 -92.2967 297° West 408 470 37,900  Descending Houston Center
Sat 08:24:16 PM 31.2564 -92.5007 294° West 411 473 38,000 48 Climbing FlightAware ADS-B
Sat 08:24:47 PM 31.2800 -92.5623 294° West 411 473 38,000  Level FlightAware ADS-B
Sat 08:25:19 PM 31.3045 -92.6269 294° West 412 474 38,000  Level FlightAware ADS-B
Sat 08:25:54 PM 31.3317 -92.6990 294° West 413 475 38,000  Level FlightAware ADS-B
Sat 08:26:29 PM 31.3589 -92.7712 294° West 413 475 38,000  Level FlightAware ADS-B
Sat 08:27:08 PM 31.3887 -92.8504 294° West 414 476 38,000  Level FlightAware ADS-B
Sat 08:27:39 PM 31.4123 -92.9131 294° West 413 475 38,000  Level FlightAware ADS-B
Sat 08:28:27 PM 31.4489 -93.0108 294° West 412 474 38,000  Level FlightAware ADS-B
Sat 08:28:57 PM 31.4721 -93.0729 294° West 409 471 38,000  Level FlightAware ADS-B
Sat 08:29:34 PM 31.5002 -93.1481 294° West 409 471 38,000  Level FlightAware ADS-B
Sat 08:30:33 PM 31.5445 -93.2673 294° West 409 471 38,000  Level FlightAware ADS-B
Sat 08:31:04 PM 31.5677 -93.3296 294° West 408 470 38,000  Level FlightAware ADS-B
Sat 08:31:35 PM 31.5909 -93.3922 293° West 408 470 38,000  Level FlightAware ADS-B
Sat 08:32:07 PM 31.6145 -93.4561 293° West 408 470 38,000  Level FlightAware ADS-B
Sat 08:32:37 PM 31.6375 -93.5185 291° West 408 470 38,000  Level FlightAware ADS-B
Sat 08:32:53 PM 31.6479 -93.5500 285° West 408 470 38,000  Level FlightAware ADS-B
Sat 08:33:05 PM 31.6541 -93.5766 284° West 408 470 38,000  Level FlightAware ADS-B
Sat 08:33:36 PM 31.6679 -93.6425 284° West 408 470 38,000  Level FlightAware ADS-B
Sat 08:34:08 PM 31.6825 -93.7109 284° West 408 470 38,000  Level FlightAware ADS-B
Sat 08:34:40 PM 31.6971 -93.7800 284° West 408 470 38,000  Level FlightAware ADS-B
Sat 08:35:13 PM 31.7118 -93.8499 284° West 408 470 38,000  Level FlightAware ADS-B
Sat 08:35:45 PM 31.7265 -93.9204 284° West 408 470 38,000  Level FlightAware ADS-B
Sat 08:36:27 PM 31.7449 -94.0090 284° West 407 468 38,000  Level FlightAware ADS-B
Sat 08:36:57 PM 31.7586 -94.0738 284° West 407 468 38,000  Level FlightAware ADS-B
Sat 08:37:29 PM 31.7729 -94.1420 284° West 407 468 38,000  Level FlightAware ADS-B
Sat 08:38:00 PM 31.7867 -94.2085 284° West 408 470 38,000  Level FlightAware ADS-B
Sat 08:38:30 PM 31.8002 -94.2732 284° West 407 468 38,000  Level FlightAware ADS-B
Sat 08:39:00 PM 31.8135 -94.3382 284° West 408 470 38,000  Level FlightAware ADS-B
Sat 08:39:30 PM 31.8268 -94.4030 284° West 409 471 38,000  Level FlightAware ADS-B
Sat 08:40:01 PM 31.8403 -94.4684 283° West 410 472 38,000  Level FlightAware ADS-B
Sat 08:40:33 PM 31.8544 -94.5377 284° West 410 472 38,000  Level FlightAware ADS-B
Sat 08:41:04 PM 31.8682 -94.6052 283° West 411 473 38,000  Level FlightAware ADS-B
Sat 08:41:34 PM 31.8816 -94.6714 284° West 411 473 38,000 -400 Level FlightAware ADS-B
Sat 08:42:04 PM 31.8951 -94.7369 283° West 409 471 37,600 -871 Descending FlightAware ADS-B
Sat 08:42:36 PM 31.9089 -94.8052 283° West 403 464 37,100 -952 Descending FlightAware ADS-B
Sat 08:43:07 PM 31.9221 -94.8713 283° West 402 463 36,600 -968 Descending FlightAware ADS-B
Sat 08:43:38 PM 31.9352 -94.9368 283° West 408 470 36,100 -968 Descending FlightAware ADS-B
Sat 08:44:09 PM 31.9488 -95.0041 283° West 413 475 35,600 -885 Descending FlightAware ADS-B
Sat 08:44:39 PM 31.9621 -95.0705 283° West 418 481 35,200 -885 Descending FlightAware ADS-B
Sat 08:45:10 PM 31.9757 -95.1387 283° West 423 487 34,700 -984 Descending FlightAware ADS-B
Sat 08:45:40 PM 31.9891 -95.2067 283° West 426 490 34,200 -1,000 Descending FlightAware ADS-B
Sat 08:46:10 PM 32.0027 -95.2743 283° West 428 493 33,700 -984 Descending FlightAware ADS-B
Sat 08:46:41 PM 32.0166 -95.3441 283° West 430 495 33,200 -984 Descending FlightAware ADS-B
Sat 08:47:11 PM 32.0302 -95.4132 283° West 431 496 32,700 -918 Descending FlightAware ADS-B
Sat 08:48:19 PM 32.0609 -95.5700 283° West 439 505 31,700 -1,289 Descending FlightAware ADS-B
Sat 08:49:12 PM 32.0857 -95.6932 290° West 434 499 30,100 -2,057 Descending FlightAware ADS-B
Sat 08:49:29 PM 32.0973 -95.7304 295° West 433 498 29,300 -2,757 Descending FlightAware ADS-B
Sat 08:49:49 PM 32.1150 -95.7748 295° West 429 494 28,400 -2,538 Descending FlightAware ADS-B
Sat 08:50:21 PM 32.1411 -95.8401 295° West 427 491 27,100 -2,432 Descending FlightAware ADS-B
Sat 08:51:03 PM 32.1761 -95.9281 295° West 420 483 25,400 -2,384 Descending FlightAware ADS-B
Sat 08:51:34 PM 32.2006 -95.9902 295° West 412 474 24,200 -2,400 Descending FlightAware ADS-B
Sat 08:52:13 PM 32.2321 -96.0698 295° West 406 467 22,600 -2,386 Descending FlightAware ADS-B
Sat 08:53:02 PM 32.2696 -96.1644 295° West 388 447 20,700 -2,375 Descending FlightAware ADS-B
Sat 08:53:49 PM 32.3045 -96.2539 295° West 380 437 18,800 -2,233 Descending FlightAware ADS-B
Sat 08:54:28 PM 32.3332 -96.3259 295° West 369 425 17,500 -2,127 Descending FlightAware ADS-B
Sat 08:55:08 PM 32.3617 -96.3985 304° West 362 417 16,000 -2,219 Descending FlightAware ADS-B
Sat 08:55:41 PM 32.3878 -96.4442 313° West 359 413 14,800 -2,055 Descending FAA TRACON SMA TRACON (SMA)
Sat 08:56:21 PM 32.4289 -96.4969 314° West 353 406 13,500 -2,025 Descending FAA TRACON SMA TRACON (SMA)
Sat 08:57:01 PM 32.4769 -96.5550 314° West 356 410 12,100 -1,875 Descending FAA TRACON SMA TRACON (SMA)
Sat 08:57:41 PM 32.5239 -96.6131 315° West 353 406 11,000 -900 Descending FAA TRACON SMA TRACON (SMA)
Sat 08:58:21 PM 32.5664 -96.6633 314° West 350 403 10,900 -76 Descending FAA TRACON SMA TRACON (SMA)
Sat 08:59:00 PM 32.6128 -96.7200 314° West 347 399 10,900  Level FAA TRACON SMA TRACON (SMA)
Sat 08:59:41 PM 32.6586 -96.7756 314° West 339 390 10,900  Level FAA TRACON SMA TRACON (SMA)
Sat 09:00:24 PM 32.6989 -96.8250 316° Northwest 297 342 10,900  Level FAA TRACON SMA TRACON (SMA)
Sat 09:01:10 PM 32.7383 -96.8706 321° Northwest 252 290 10,900  Level FAA TRACON SMA TRACON (SMA)
Sat 09:01:41 PM 32.7661 -96.8972 358° North 245 282 10,900 -592 Level FAA TRACON SMA TRACON (SMA)
Sat 09:02:21 PM 32.8122 -96.8994 North 252 290 10,200 -1,500 Descending FAA TRACON SMA TRACON (SMA)
Sat 09:03:01 PM 32.8603 -96.8986 357° North 262 302 8,900 -1,950 Descending FAA TRACON SMA TRACON (SMA)
Sat 09:03:41 PM 32.9106 -96.9014 357° North 259 298 7,600 -1,800 Descending FAA TRACON SMA TRACON (SMA)
Sat 09:04:21 PM 32.9525 -96.9042 352° North 244 281 6,500 -1,950 Descending FAA TRACON SMA TRACON (SMA)
Sat 09:05:01 PM 32.9969 -96.9117 346° North 231 266 5,000 -2,175 Descending FAA TRACON SMA TRACON (SMA)
Sat 09:05:41 PM 33.0375 -96.9242 279° West 240 276 3,600 -1,950 Descending FAA TRACON SMA TRACON (SMA)
Sat 09:06:21 PM 33.0442 -96.9725 237° Southwest 218 251 2,400 -975 Descending FAA TRACON SMA TRACON (SMA)
Sat 09:07:01 PM 33.0267 -97.0042 212° Southwest 175 201 2,300 -225 Descending FAA TRACON SMA TRACON (SMA)
Sat 09:07:41 PM 33.0050 -97.0203 212° Southwest 153 176 2,100 -300 Descending FAA TRACON SMA TRACON (SMA)

Login

Don't have an account? Register now (free) for customized features, flight alerts, and more!